createdAt,value
2018-05-31T00:00:08.979Z,24.3
2018-05-31T00:00:58.711Z,24.4
2018-05-31T00:01:48.818Z,24.4
2018-05-31T00:02:38.309Z,24.4
2018-05-31T00:03:28.987Z,24.4
2018-05-31T00:04:18.700Z,24.3
2018-05-31T00:05:09.406Z,24.4
2018-05-31T00:05:59.485Z,24.3
2018-05-31T00:06:48.752Z,24.3
2018-05-31T00:07:38.960Z,24.3
2018-05-31T00:08:28.487Z,24.3
2018-05-31T00:09:18.810Z,24.3
2018-05-31T00:10:10.338Z,24.3
2018-05-31T00:10:59.230Z,24.3
2018-05-31T00:11:49.592Z,24.3
2018-05-31T00:12:39.665Z,24.3
2018-05-31T00:13:31.221Z,24.3
2018-05-31T00:14:19.815Z,24.3
2018-05-31T00:15:10.100Z,24.3
2018-05-31T00:15:59.022Z,24.3
2018-05-31T00:16:52.719Z,24.3
2018-05-31T00:17:39.152Z,24.3
2018-05-31T00:18:30.082Z,24.3
2018-05-31T00:19:18.997Z,24.3
2018-05-31T00:20:12.719Z,24.3
2018-05-31T00:21:00.588Z,24.3
2018-05-31T00:21:50.668Z,24.3
2018-05-31T00:22:39.546Z,24.3
2018-05-31T00:23:33.338Z,24.3
2018-05-31T00:24:19.993Z,24.3
2018-05-31T00:25:11.139Z,24.3
2018-05-31T00:26:00.993Z,24.3
2018-05-31T00:26:50.516Z,24.3
2018-05-31T00:27:40.493Z,24.3
2018-05-31T00:28:30.881Z,24.3
2018-05-31T00:29:20.134Z,24.3
2018-05-31T00:30:11.066Z,24.3
2018-05-31T00:31:01.036Z,24.3
2018-05-31T00:31:51.139Z,24.3
2018-05-31T00:32:41.507Z,24.3
2018-05-31T00:33:31.253Z,24.3
2018-05-31T00:34:21.353Z,24.3
2018-05-31T00:35:10.778Z,24.3
2018-05-31T00:36:01.691Z,24.3
2018-05-31T00:36:51.469Z,24.3
2018-05-31T00:37:41.203Z,24.3
2018-05-31T00:38:31.315Z,24.3
2018-05-31T00:39:21.940Z,24.3
2018-05-31T00:40:11.423Z,24.3
2018-05-31T00:41:02.118Z,24.3
2018-05-31T00:41:51.002Z,24.3
2018-05-31T00:42:43.598Z,24.3
2018-05-31T00:43:31.489Z,24.3
2018-05-31T00:44:22.354Z,24.3
2018-05-31T00:45:11.827Z,24.2
2018-05-31T00:46:04.446Z,24.3
2018-05-31T00:46:51.677Z,24.3
2018-05-31T00:47:40.876Z,24.2
2018-05-31T00:48:32.433Z,24.2
2018-05-31T00:49:25.466Z,24.2
2018-05-31T00:50:11.905Z,24.3
2018-05-31T00:51:02.531Z,24.2
2018-05-31T00:51:52.019Z,24.3
2018-05-31T00:52:44.763Z,24.2
2018-05-31T00:53:32.157Z,24.2
2018-05-31T00:54:23.219Z,24.3
2018-05-31T00:55:12.610Z,24.2
2018-05-31T00:56:04.760Z,24.2
2018-05-31T00:56:52.732Z,24.2
2018-05-31T00:57:43.108Z,24.2
2018-05-31T00:58:32.841Z,24.2
2018-05-31T00:59:23.671Z,24.2
2018-05-31T01:00:12.978Z,24.2
2018-05-31T01:01:02.440Z,24.2
2018-05-31T01:01:53.385Z,24.3
2018-05-31T01:02:43.195Z,24.2
2018-05-31T01:03:33.272Z,24.2
2018-05-31T01:04:22.445Z,24.2
2018-05-31T01:05:13.949Z,24.2
2018-05-31T01:06:03.149Z,24.3
2018-05-31T01:06:54.079Z,24.2
2018-05-31T01:07:43.875Z,24.2
2018-05-31T01:08:33.636Z,24.2
2018-05-31T01:09:23.676Z,24.2
2018-05-31T01:10:13.441Z,24.1
2018-05-31T01:11:03.851Z,24.2
2018-05-31T01:11:55.537Z,24.2
2018-05-31T01:12:43.920Z,24.2
2018-05-31T01:13:33.703Z,24.2
2018-05-31T01:14:24.319Z,24.2
2018-05-31T01:15:16.045Z,24.2
2018-05-31T01:16:03.617Z,24.2
2018-05-31T01:16:54.841Z,24.1
2018-05-31T01:17:44.291Z,24.2
2018-05-31T01:18:37.627Z,24.2
2018-05-31T01:19:23.648Z,24.1
2018-05-31T01:20:13.940Z,24.1
2018-05-31T01:21:04.078Z,24.1
2018-05-31T01:21:57.053Z,24.2
2018-05-31T01:22:43.798Z,24.1
2018-05-31T01:23:35.335Z,24.1
2018-05-31T01:24:24.781Z,24.1
2018-05-31T01:25:17.037Z,24.1
2018-05-31T01:26:05.498Z,24.1
2018-05-31T01:26:55.330Z,24.1
2018-05-31T01:27:45.386Z,24.1
2018-05-31T01:28:37.209Z,24.1
2018-05-31T01:29:25.194Z,24.1
2018-05-31T01:30:15.576Z,24.1
2018-05-31T01:31:05.289Z,24.1
2018-05-31T01:31:56.524Z,24.1
2018-05-31T01:32:45.707Z,24.1
2018-05-31T01:33:35.536Z,24.1
2018-05-31T01:34:25.005Z,24.1
2018-05-31T01:35:15.994Z,24.1
2018-05-31T01:36:06.007Z,24.1
2018-05-31T01:36:55.752Z,24.1
2018-05-31T01:37:46.586Z,24.1
2018-05-31T01:38:35.879Z,24.1
2018-05-31T01:39:25.987Z,24.1
2018-05-31T01:40:16.427Z,24.1
2018-05-31T01:41:07.253Z,24.1
2018-05-31T01:41:56.165Z,24.1
2018-05-31T01:42:46.248Z,24.1
2018-05-31T01:43:35.702Z,24.1
2018-05-31T01:44:27.082Z,24.1
2018-05-31T01:45:16.077Z,24.1
2018-05-31T01:46:06.177Z,24.1
2018-05-31T01:46:55.883Z,24.1
2018-05-31T01:47:49.528Z,24.1
2018-05-31T01:48:36.944Z,24.1
2018-05-31T01:49:27.314Z,24.1
2018-05-31T01:50:17.095Z,24.1
2018-05-31T01:51:09.294Z,24.1
2018-05-31T01:51:56.938Z,24.1
2018-05-31T01:52:47.273Z,24.1
2018-05-31T01:53:36.785Z,24.1
2018-05-31T01:54:29.593Z,24.1
2018-05-31T01:55:17.490Z,24.1
2018-05-31T01:56:07.518Z,24.1
2018-05-31T01:56:57.921Z,24.1
2018-05-31T01:57:50.657Z,24.1
2018-05-31T01:58:37.767Z,24.1
2018-05-31T01:59:27.199Z,24.1
2018-05-31T02:00:18.093Z,24.1
2018-05-31T02:01:10.330Z,24
2018-05-31T02:01:57.652Z,24.1
2018-05-31T02:02:48.097Z,24.1
2018-05-31T02:03:37.764Z,24
2018-05-31T02:04:28.715Z,24.1
2018-05-31T02:05:18.197Z,24
2018-05-31T02:06:07.981Z,24
2018-05-31T02:06:57.136Z,24
2018-05-31T02:07:47.839Z,24
2018-05-31T02:08:38.459Z,24
2018-05-31T02:09:28.205Z,24
2018-05-31T02:10:19.503Z,24
2018-05-31T02:11:08.964Z,24
2018-05-31T02:11:58.993Z,24
2018-05-31T02:12:48.518Z,24
2018-05-31T02:13:39.634Z,24
2018-05-31T02:14:28.884Z,24
2018-05-31T02:15:18.737Z,24
2018-05-31T02:16:08.726Z,24
2018-05-31T02:17:01.126Z,24
2018-05-31T02:17:49.164Z,24
2018-05-31T02:18:38.665Z,24
2018-05-31T02:19:27.875Z,24
2018-05-31T02:20:22.557Z,24
2018-05-31T02:21:09.187Z,24
2018-05-31T02:21:58.912Z,24
2018-05-31T02:22:49.612Z,24
2018-05-31T02:23:41.565Z,24
2018-05-31T02:24:28.966Z,24
2018-05-31T02:25:19.999Z,24
2018-05-31T02:26:10.088Z,24
2018-05-31T02:27:02.190Z,23.9
2018-05-31T02:27:49.993Z,23.9
2018-05-31T02:28:39.978Z,23.9
2018-05-31T02:29:30.093Z,23.9
2018-05-31T02:30:19.621Z,24
2018-05-31T02:31:10.368Z,23.9
2018-05-31T02:32:00.264Z,23.9
2018-05-31T02:32:50.279Z,23.9
2018-05-31T02:33:40.617Z,23.9
2018-05-31T02:34:29.843Z,23.9
2018-05-31T02:35:20.548Z,23.9
2018-05-31T02:36:10.028Z,23.9
2018-05-31T02:37:00.340Z,23.9
2018-05-31T02:37:50.695Z,23.9
2018-05-31T02:38:39.589Z,23.9
2018-05-31T02:39:31.963Z,23.9
2018-05-31T02:40:20.562Z,23.9
2018-05-31T02:41:10.949Z,23.9
2018-05-31T02:42:00.943Z,23.9
2018-05-31T02:42:53.215Z,23.9
2018-05-31T02:43:40.535Z,23.9
2018-05-31T02:44:30.899Z,23.9
2018-05-31T02:45:21.212Z,23.9
2018-05-31T02:46:13.595Z,23.9
2018-05-31T02:47:01.333Z,23.9
2018-05-31T02:47:51.782Z,23.9
2018-05-31T02:48:41.220Z,23.9
2018-05-31T02:49:34.019Z,23.9
2018-05-31T02:50:21.973Z,23.9
2018-05-31T02:51:11.116Z,23.9
2018-05-31T02:52:01.508Z,23.9
2018-05-31T02:52:54.848Z,23.9
2018-05-31T02:53:41.874Z,23.9
2018-05-31T02:54:31.111Z,23.9
2018-05-31T02:55:21.766Z,23.9
2018-05-31T02:56:13.988Z,23.9
2018-05-31T02:57:01.921Z,23.9
2018-05-31T02:57:52.454Z,23.9
2018-05-31T02:58:42.527Z,23.9
2018-05-31T02:59:31.500Z,23.9
2018-05-31T03:00:22.534Z,23.9
2018-05-31T03:01:12.180Z,23.9
2018-05-31T03:02:02.556Z,23.9
2018-05-31T03:02:52.606Z,23.9
2018-05-31T03:03:42.629Z,23.8
2018-05-31T03:04:32.604Z,23.8
2018-05-31T03:05:22.846Z,23.8
2018-05-31T03:06:12.856Z,23.9
2018-05-31T03:07:02.749Z,23.9
2018-05-31T03:07:52.818Z,23.8
2018-05-31T03:08:44.053Z,23.8
2018-05-31T03:09:32.825Z,23.9
2018-05-31T03:10:22.908Z,23.8
2018-05-31T03:11:13.269Z,23.8
2018-05-31T03:12:05.892Z,23.8
2018-05-31T03:12:53.357Z,23.8
2018-05-31T03:13:43.442Z,23.8
2018-05-31T03:14:31.756Z,23.8
2018-05-31T03:15:24.754Z,23.8
2018-05-31T03:16:13.630Z,23.8
2018-05-31T03:17:02.868Z,23.9
2018-05-31T03:17:54.116Z,23.8
2018-05-31T03:18:47.209Z,23.9
2018-05-31T03:19:33.626Z,23.9
2018-05-31T03:20:23.670Z,23.9
2018-05-31T03:21:13.743Z,23.8
2018-05-31T03:22:05.407Z,23.9
2018-05-31T03:22:54.102Z,23.9
2018-05-31T03:23:43.293Z,23.9
2018-05-31T03:24:34.269Z,23.8
2018-05-31T03:25:23.795Z,23.9
2018-05-31T03:26:14.077Z,23.8
2018-05-31T03:27:03.828Z,23.8
2018-05-31T03:27:54.206Z,23.8
2018-05-31T03:28:44.276Z,23.8
2018-05-31T03:29:34.599Z,23.8
2018-05-31T03:30:24.440Z,23.8
2018-05-31T03:31:16.028Z,23.8
2018-05-31T03:32:04.831Z,23.8
2018-05-31T03:32:54.598Z,23.9
2018-05-31T03:33:44.033Z,23.9
2018-05-31T03:34:37.212Z,23.9
2018-05-31T03:35:24.862Z,23.9
2018-05-31T03:36:13.940Z,23.9
2018-05-31T03:37:05.202Z,23.9
2018-05-31T03:37:57.712Z,23.9
2018-05-31T03:38:45.307Z,23.9
2018-05-31T03:39:34.786Z,23.9
2018-05-31T03:40:25.411Z,23.9
2018-05-31T03:41:18.341Z,23.9
2018-05-31T03:42:05.626Z,23.9
2018-05-31T03:42:55.371Z,23.9
2018-05-31T03:43:44.797Z,23.9
2018-05-31T03:44:33.816Z,23.9
2018-05-31T03:45:24.189Z,23.9
2018-05-31T03:46:15.920Z,23.9
2018-05-31T03:47:06.272Z,23.9
2018-05-31T03:47:55.562Z,23.9
2018-05-31T03:48:45.505Z,23.9
2018-05-31T03:49:35.014Z,23.9
2018-05-31T03:50:25.907Z,23.9
2018-05-31T03:51:16.263Z,23.9
2018-05-31T03:52:05.819Z,23.9
2018-05-31T03:52:56.641Z,23.9
2018-05-31T03:53:46.134Z,23.9
2018-05-31T03:54:36.543Z,23.9
2018-05-31T03:55:25.999Z,23.9
2018-05-31T03:56:16.124Z,23.9
2018-05-31T03:57:07.657Z,23.9
2018-05-31T03:57:56.514Z,23.9
2018-05-31T03:58:47.111Z,23.9
2018-05-31T03:59:35.733Z,23.9
2018-05-31T04:00:29.472Z,23.9
2018-05-31T04:01:17.323Z,23.9
2018-05-31T04:02:07.416Z,23.9
2018-05-31T04:02:57.428Z,23.9
2018-05-31T04:03:50.030Z,23.9
2018-05-31T04:04:37.664Z,23.9
2018-05-31T04:05:27.347Z,23.9
2018-05-31T04:06:17.672Z,23.9
2018-05-31T04:07:10.933Z,23.9
2018-05-31T04:07:57.262Z,23.9
2018-05-31T04:08:47.600Z,23.9
2018-05-31T04:09:38.008Z,23.9
2018-05-31T04:10:31.053Z,23.9
2018-05-31T04:11:17.799Z,23.9
2018-05-31T04:12:07.242Z,23.9
2018-05-31T04:12:58.099Z,23.9
2018-05-31T04:13:47.968Z,23.9
2018-05-31T04:14:37.477Z,23.9
2018-05-31T04:15:27.846Z,23.9
2018-05-31T04:16:17.905Z,23.9
2018-05-31T04:17:07.665Z,23.9
2018-05-31T04:17:57.710Z,23.9
2018-05-31T04:18:48.319Z,23.9
2018-05-31T04:19:38.801Z,24
2018-05-31T04:20:27.995Z,24
2018-05-31T04:21:18.536Z,24
2018-05-31T04:22:08.288Z,24
2018-05-31T04:23:00.060Z,24
2018-05-31T04:23:48.456Z,24
2018-05-31T04:24:39.110Z,24
2018-05-31T04:25:28.557Z,24.1
2018-05-31T04:26:21.455Z,24.1
2018-05-31T04:27:08.746Z,24.1
2018-05-31T04:27:58.792Z,24.1
2018-05-31T04:28:48.833Z,24.1
2018-05-31T04:29:41.962Z,24.1
2018-05-31T04:30:29.267Z,24.1
2018-05-31T04:31:19.313Z,24.1
2018-05-31T04:32:09.100Z,24.1
2018-05-31T04:33:02.179Z,24.1
2018-05-31T04:33:50.462Z,24.1
2018-05-31T04:34:39.703Z,24.1
2018-05-31T04:35:29.918Z,24.1
2018-05-31T04:36:21.926Z,24.1
2018-05-31T04:37:09.232Z,24.1
2018-05-31T04:37:59.789Z,24.1
2018-05-31T04:38:50.177Z,24.1
2018-05-31T04:39:39.315Z,24.1
2018-05-31T04:40:29.711Z,24.1
2018-05-31T04:41:20.072Z,24.1
2018-05-31T04:42:10.444Z,24.1
2018-05-31T04:43:00.465Z,24.1
2018-05-31T04:43:50.521Z,24.1
2018-05-31T04:44:40.019Z,24.1
2018-05-31T04:45:31.751Z,24.1
2018-05-31T04:46:20.724Z,24.1
2018-05-31T04:47:10.572Z,24.1
2018-05-31T04:48:00.580Z,24.1
2018-05-31T04:48:52.568Z,24.1
2018-05-31T04:49:40.710Z,24.1
2018-05-31T04:50:30.538Z,24.1
2018-05-31T04:51:20.252Z,24.1
2018-05-31T04:52:13.616Z,24.1
2018-05-31T04:53:01.024Z,24.1
2018-05-31T04:53:49.837Z,24.1
2018-05-31T04:54:40.514Z,24.1
2018-05-31T04:55:34.299Z,24.1
2018-05-31T04:56:20.964Z,24.1
2018-05-31T04:57:11.006Z,24.1
2018-05-31T04:58:01.401Z,24.1
2018-05-31T04:58:53.834Z,24.1
2018-05-31T04:59:40.671Z,24.1
2018-05-31T05:00:31.886Z,24.1
2018-05-31T05:01:21.290Z,24.1
2018-05-31T05:02:13.881Z,24.1
2018-05-31T05:03:01.491Z,24.1
2018-05-31T05:03:51.286Z,24.1
2018-05-31T05:04:41.084Z,24.1
2018-05-31T05:05:31.721Z,24.1
2018-05-31T05:06:21.386Z,24.1
2018-05-31T05:07:12.028Z,24.1
2018-05-31T05:08:02.129Z,24.1
2018-05-31T05:08:51.411Z,24.1
2018-05-31T05:09:41.496Z,24.1
2018-05-31T05:10:31.531Z,24.1
2018-05-31T05:11:23.031Z,24.1
2018-05-31T05:12:11.658Z,24.1
2018-05-31T05:13:02.035Z,24.1
2018-05-31T05:13:51.957Z,24.1
2018-05-31T05:14:44.563Z,24.1
2018-05-31T05:15:32.695Z,24.1
2018-05-31T05:16:22.800Z,24.1
2018-05-31T05:17:12.240Z,24.1
2018-05-31T05:18:06.112Z,24.1
2018-05-31T05:18:53.219Z,24.1
2018-05-31T05:19:42.759Z,24.1
2018-05-31T05:20:33.073Z,24.1
2018-05-31T05:21:26.571Z,24.1
2018-05-31T05:22:12.895Z,24.1
2018-05-31T05:23:02.683Z,24.1
2018-05-31T05:23:53.019Z,24.1
2018-05-31T05:24:43.813Z,24.1
2018-05-31T05:25:32.693Z,24.1
2018-05-31T05:26:22.534Z,24.1
2018-05-31T05:27:13.903Z,24.1
2018-05-31T05:28:03.620Z,24.1
2018-05-31T05:28:53.424Z,24.1
2018-05-31T05:29:44.092Z,24.1
2018-05-31T05:30:33.583Z,24.1
2018-05-31T05:31:23.616Z,24.1
2018-05-31T05:32:13.373Z,24.1
2018-05-31T05:33:03.720Z,24.1
2018-05-31T05:33:54.036Z,24.1
2018-05-31T05:34:44.127Z,24.1
2018-05-31T05:35:33.290Z,24.1
2018-05-31T05:36:24.297Z,24.1
2018-05-31T05:37:15.969Z,24.1
2018-05-31T05:38:04.659Z,24.1
2018-05-31T05:38:54.425Z,24.1
2018-05-31T05:39:44.818Z,24.2
2018-05-31T05:40:38.081Z,24.2
2018-05-31T05:41:24.646Z,24.2
2018-05-31T05:42:14.201Z,24.2
2018-05-31T05:43:04.855Z,24.2
2018-05-31T05:43:57.936Z,24.1
2018-05-31T05:44:45.271Z,24.2
2018-05-31T05:45:34.769Z,24.2
2018-05-31T05:46:24.419Z,24.1
2018-05-31T05:47:17.391Z,24.1
2018-05-31T05:48:04.858Z,24.2
2018-05-31T05:48:54.622Z,24.2
2018-05-31T05:49:45.273Z,24.2
2018-05-31T05:50:34.478Z,24.2
2018-05-31T05:51:24.827Z,24.2
2018-05-31T05:52:15.177Z,24.2
2018-05-31T05:53:05.315Z,24.2
2018-05-31T05:53:55.095Z,24.2
2018-05-31T05:54:45.362Z,24.2
2018-05-31T05:55:35.237Z,24.2
2018-05-31T05:56:27.710Z,24.2
2018-05-31T05:57:15.851Z,24.2
2018-05-31T05:58:06.211Z,24.2
2018-05-31T05:58:56.265Z,24.2
2018-05-31T05:59:48.164Z,24.2
2018-05-31T06:00:35.955Z,24.2
2018-05-31T06:01:26.437Z,24.3
2018-05-31T06:02:16.201Z,24.3
2018-05-31T06:03:09.542Z,24.2
2018-05-31T06:03:56.637Z,24.2
2018-05-31T06:04:46.718Z,24.3
2018-05-31T06:05:36.492Z,24.2
2018-05-31T06:06:29.714Z,24.2
2018-05-31T06:07:16.312Z,24.2
2018-05-31T06:08:06.935Z,24.2
2018-05-31T06:08:56.574Z,24.2
2018-05-31T06:09:47.194Z,24.1
2018-05-31T06:10:37.204Z,24.1
2018-05-31T06:11:27.262Z,24.2
2018-05-31T06:12:16.410Z,24.1
2018-05-31T06:13:07.106Z,24.2
2018-05-31T06:13:57.145Z,24.2
2018-05-31T06:14:47.217Z,24.2
2018-05-31T06:15:39.133Z,24.2
2018-05-31T06:16:27.344Z,24.2
2018-05-31T06:17:16.511Z,24.3
2018-05-31T06:18:07.478Z,24.2
2018-05-31T06:19:00.178Z,24.2
2018-05-31T06:19:48.021Z,24.2
2018-05-31T06:20:37.052Z,24.2
2018-05-31T06:21:26.852Z,24.3
2018-05-31T06:22:19.412Z,24.3
2018-05-31T06:23:08.207Z,24.3
2018-05-31T06:23:57.017Z,24.3
2018-05-31T06:24:47.931Z,24.3
2018-05-31T06:25:40.841Z,24.3
2018-05-31T06:26:30.510Z,24.3
2018-05-31T06:27:17.871Z,24.3
2018-05-31T06:28:07.903Z,24.3
2018-05-31T06:29:00.837Z,24.3
2018-05-31T06:29:47.220Z,24.3
2018-05-31T06:30:38.125Z,24.3
2018-05-31T06:31:28.516Z,24.3
2018-05-31T06:32:18.851Z,24.3
2018-05-31T06:33:08.346Z,24.3
2018-05-31T06:33:58.927Z,24.3
2018-05-31T06:34:48.573Z,24.4
2018-05-31T06:35:38.403Z,24.4
2018-05-31T06:36:28.744Z,24.4
2018-05-31T06:37:20.062Z,24.4
2018-05-31T06:38:09.185Z,24.4
2018-05-31T06:38:59.208Z,24.5
2018-05-31T06:39:48.738Z,24.5
2018-05-31T06:40:39.345Z,24.5
2018-05-31T06:41:29.153Z,24.5
2018-05-31T06:42:19.237Z,24.6
2018-05-31T06:43:09.385Z,24.6
2018-05-31T06:43:58.817Z,24.6
2018-05-31T06:44:49.125Z,24.6
2018-05-31T06:45:39.378Z,24.6
2018-05-31T06:46:29.230Z,24.6
2018-05-31T06:47:19.072Z,24.6
2018-05-31T06:48:09.689Z,24.6
2018-05-31T06:48:59.726Z,24.6
2018-05-31T06:49:49.541Z,24.7
2018-05-31T06:50:39.344Z,24.6
2018-05-31T06:51:29.015Z,24.6
2018-05-31T06:52:19.358Z,24.7
2018-05-31T06:53:10.028Z,24.7
2018-05-31T06:54:00.099Z,24.7
2018-05-31T06:54:49.844Z,24.7
2018-05-31T06:55:39.645Z,24.7
2018-05-31T06:56:29.994Z,24.7
2018-05-31T06:57:20.035Z,24.7
2018-05-31T06:58:09.884Z,24.7
2018-05-31T06:59:00.436Z,24.7
2018-05-31T06:59:50.190Z,24.8
2018-05-31T07:00:40.603Z,24.8
2018-05-31T07:01:30.309Z,24.8
2018-05-31T07:02:19.859Z,24.8
2018-05-31T07:03:11.033Z,24.8
2018-05-31T07:04:00.801Z,24.8
2018-05-31T07:04:50.312Z,24.8
2018-05-31T07:05:41.044Z,24.8
2018-05-31T07:06:30.484Z,24.8
2018-05-31T07:07:21.084Z,24.8
2018-05-31T07:08:11.141Z,24.8
2018-05-31T07:09:00.681Z,24.8
2018-05-31T07:09:51.241Z,24.8
2018-05-31T07:10:40.777Z,24.8
2018-05-31T07:11:30.916Z,24.8
2018-05-31T07:12:21.768Z,24.8
2018-05-31T07:13:11.262Z,24.8
2018-05-31T07:14:01.019Z,24.8
2018-05-31T07:14:51.898Z,24.9
2018-05-31T07:15:41.752Z,24.9
2018-05-31T07:16:31.521Z,24.8
2018-05-31T07:17:21.856Z,24.9
2018-05-31T07:18:12.177Z,24.9
2018-05-31T07:19:02.228Z,24.9
2018-05-31T07:19:52.016Z,24.9
2018-05-31T07:20:42.165Z,24.9
2018-05-31T07:21:31.711Z,24.9
2018-05-31T07:22:22.286Z,24.9
2018-05-31T07:23:11.997Z,24.9
2018-05-31T07:24:01.364Z,25
2018-05-31T07:24:52.175Z,25
2018-05-31T07:25:41.985Z,24.9
2018-05-31T07:26:32.551Z,24.9
2018-05-31T07:27:23.235Z,25
2018-05-31T07:28:12.115Z,25
2018-05-31T07:29:03.080Z,25
2018-05-31T07:29:52.257Z,25
2018-05-31T07:30:42.730Z,25
2018-05-31T07:31:31.955Z,24.9
2018-05-31T07:32:22.445Z,25
2018-05-31T07:33:11.980Z,25
2018-05-31T07:34:03.463Z,25
2018-05-31T07:34:53.219Z,25
2018-05-31T07:35:43.317Z,25
2018-05-31T07:36:33.368Z,25
2018-05-31T07:37:22.801Z,25
2018-05-31T07:38:12.912Z,25
2018-05-31T07:39:03.263Z,25.1
2018-05-31T07:39:53.309Z,25.1
2018-05-31T07:40:43.420Z,25.1
2018-05-31T07:41:33.433Z,25.1
2018-05-31T07:42:23.812Z,25.1
2018-05-31T07:43:13.533Z,25.1
2018-05-31T07:44:03.929Z,25.1
2018-05-31T07:44:54.232Z,25.1
2018-05-31T07:45:44.287Z,25.1
2018-05-31T07:46:32.973Z,25.1
2018-05-31T07:47:24.121Z,25.1
2018-05-31T07:48:14.265Z,25.1
2018-05-31T07:49:04.626Z,25.1
2018-05-31T07:49:54.064Z,25.1
2018-05-31T07:50:44.482Z,25.1
2018-05-31T07:51:34.823Z,25.1
2018-05-31T07:52:24.345Z,25.1
2018-05-31T07:53:14.972Z,25.1
2018-05-31T07:54:04.468Z,25.1
2018-05-31T07:54:54.688Z,25.1
2018-05-31T07:55:44.215Z,25.2
2018-05-31T07:56:34.838Z,25.1
2018-05-31T07:57:25.193Z,25.1
2018-05-31T07:58:15.934Z,25.2
2018-05-31T07:59:04.739Z,25.2
2018-05-31T07:59:54.798Z,25.2
2018-05-31T08:00:44.422Z,25.2
2018-05-31T08:01:34.104Z,25.2
2018-05-31T08:02:24.800Z,25.2
2018-05-31T08:03:15.717Z,25.2
2018-05-31T08:04:05.144Z,25.2
2018-05-31T08:04:55.537Z,25.2
2018-05-31T08:05:45.077Z,25.3
2018-05-31T08:06:35.129Z,25.2
2018-05-31T08:07:26.017Z,25.2
2018-05-31T08:08:16.111Z,25.3
2018-05-31T08:09:05.305Z,25.3
2018-05-31T08:09:55.957Z,25.2
2018-05-31T08:10:45.560Z,25.2
2018-05-31T08:11:36.278Z,25.1
2018-05-31T08:12:24.618Z,25.2
2018-05-31T08:13:15.652Z,25.2
2018-05-31T08:14:06.248Z,25.2
2018-05-31T08:14:56.291Z,25.1
2018-05-31T08:15:46.143Z,25.1
2018-05-31T08:16:35.919Z,25.1
2018-05-31T08:17:26.272Z,25.1
2018-05-31T08:18:16.574Z,25.1
2018-05-31T08:19:06.346Z,25.2
2018-05-31T08:19:56.455Z,25.1
2018-05-31T08:20:47.199Z,25.1
2018-05-31T08:21:37.129Z,25.1
2018-05-31T08:22:26.560Z,25.1
2018-05-31T08:23:16.065Z,25.1
2018-05-31T08:24:06.409Z,25.1
2018-05-31T08:24:56.817Z,25.1
2018-05-31T08:25:46.558Z,25.1
2018-05-31T08:26:36.665Z,25.1
2018-05-31T08:27:26.391Z,25.1
2018-05-31T08:28:16.524Z,25.2
2018-05-31T08:29:07.429Z,25.2
2018-05-31T08:29:57.767Z,25.3
2018-05-31T08:30:47.243Z,25.3
2018-05-31T08:31:39.728Z,25.3
2018-05-31T08:32:27.080Z,25.3
2018-05-31T08:33:16.114Z,25.3
2018-05-31T08:34:08.059Z,25.3
2018-05-31T08:34:58.199Z,25.3
2018-05-31T08:35:48.180Z,25.3
2018-05-31T08:36:38.282Z,25.3
2018-05-31T08:37:27.987Z,25.3
2018-05-31T08:38:17.244Z,25.3
2018-05-31T08:39:07.580Z,25.3
2018-05-31T08:39:58.216Z,25.3
2018-05-31T08:40:47.700Z,25.3
2018-05-31T08:41:38.072Z,25.3
2018-05-31T08:42:28.456Z,25.3
2018-05-31T08:43:18.501Z,25.4
2018-05-31T08:44:09.334Z,25.3
2018-05-31T08:44:58.311Z,25.4
2018-05-31T08:45:48.416Z,25.3
2018-05-31T08:46:38.691Z,25.3
2018-05-31T08:47:27.953Z,25.3
2018-05-31T08:48:18.923Z,25.3
2018-05-31T08:49:07.906Z,25.2
2018-05-31T08:49:59.265Z,25.1
2018-05-31T08:50:49.018Z,25.1
2018-05-31T08:51:38.846Z,25.2
2018-05-31T08:52:28.582Z,25.1
2018-05-31T08:53:18.674Z,25.1
2018-05-31T08:54:09.352Z,25.2
2018-05-31T08:54:59.341Z,25.3
2018-05-31T08:55:47.895Z,25.3
2018-05-31T08:56:39.497Z,25.3
2018-05-31T08:57:28.934Z,25.4
2018-05-31T08:58:19.045Z,25.4
2018-05-31T08:59:09.974Z,25.4
2018-05-31T08:59:59.232Z,25.4
2018-05-31T09:00:49.925Z,25.4
2018-05-31T09:01:39.584Z,25.4
2018-05-31T09:02:29.929Z,25.4
2018-05-31T09:03:19.511Z,25.4
2018-05-31T09:04:09.789Z,25.4
2018-05-31T09:04:59.173Z,25.4
2018-05-31T09:05:50.265Z,25.5
2018-05-31T09:06:39.121Z,25.5
2018-05-31T09:07:30.597Z,25.5
2018-05-31T09:08:20.404Z,25.5
2018-05-31T09:09:10.224Z,25.4
2018-05-31T09:10:00.284Z,25.4
2018-05-31T09:10:50.888Z,25.4
2018-05-31T09:11:40.958Z,25.4
2018-05-31T09:12:30.762Z,25.4
2018-05-31T09:13:20.209Z,25.5
2018-05-31T09:14:10.906Z,25.5
2018-05-31T09:15:01.243Z,25.5
2018-05-31T09:15:50.405Z,25.5
2018-05-31T09:16:41.043Z,25.5
2018-05-31T09:17:30.911Z,25.5
2018-05-31T09:18:20.910Z,25.5
2018-05-31T09:19:11.224Z,25.5
2018-05-31T09:20:00.737Z,25.5
2018-05-31T09:20:50.498Z,25.5
2018-05-31T09:21:41.681Z,25.5
2018-05-31T09:22:31.492Z,25.4
2018-05-31T09:23:21.280Z,25.4
2018-05-31T09:24:11.590Z,25.4
2018-05-31T09:25:01.716Z,25.5
2018-05-31T09:25:50.864Z,25.5
2018-05-31T09:26:41.535Z,25.5
2018-05-31T09:27:31.330Z,25.5
2018-05-31T09:28:21.971Z,25.5
2018-05-31T09:29:12.053Z,25.5
2018-05-31T09:30:01.800Z,25.6
2018-05-31T09:30:52.078Z,25.6
2018-05-31T09:31:42.478Z,25.6
2018-05-31T09:32:31.392Z,25.6
2018-05-31T09:33:22.343Z,25.6
2018-05-31T09:34:11.816Z,25.6
2018-05-31T09:35:02.256Z,25.6
2018-05-31T09:35:52.304Z,25.6
2018-05-31T09:36:42.357Z,25.6
2018-05-31T09:37:32.641Z,25.6
2018-05-31T09:38:22.684Z,25.6
2018-05-31T09:39:12.789Z,25.6
2018-05-31T09:40:03.119Z,25.6
2018-05-31T09:40:53.259Z,25.6
2018-05-31T09:41:42.368Z,25.6
2018-05-31T09:42:31.881Z,25.6
2018-05-31T09:43:22.807Z,25.6
2018-05-31T09:44:13.446Z,25.6
2018-05-31T09:45:03.560Z,25.6
2018-05-31T09:45:53.570Z,25.6
2018-05-31T09:46:43.741Z,25.6
2018-05-31T09:47:33.714Z,25.4
2018-05-31T09:48:23.522Z,25.4
2018-05-31T09:49:12.706Z,25.4
2018-05-31T09:50:03.629Z,25.5
2018-05-31T09:50:53.706Z,25.5
2018-05-31T09:51:43.490Z,25.5
2018-05-31T09:52:33.323Z,25.6
2018-05-31T09:53:23.626Z,25.5
2018-05-31T09:54:13.099Z,25.6
2018-05-31T09:55:04.111Z,25.6
2018-05-31T09:55:54.349Z,25.6
2018-05-31T09:56:43.873Z,25.6
2018-05-31T09:57:33.987Z,25.6
2018-05-31T09:58:24.472Z,25.6
2018-05-31T09:59:13.514Z,25.6
2018-05-31T10:00:04.174Z,25.6
2018-05-31T10:00:53.623Z,25.6
2018-05-31T10:01:44.302Z,25.6
2018-05-31T10:02:34.310Z,25.6
2018-05-31T10:03:24.638Z,25.6
2018-05-31T10:04:14.442Z,25.6
2018-05-31T10:05:04.227Z,25.6
2018-05-31T10:05:54.907Z,25.6
2018-05-31T10:06:45.186Z,25.6
2018-05-31T10:07:34.730Z,25.6
2018-05-31T10:08:25.052Z,25.6
2018-05-31T10:09:14.858Z,25.5
2018-05-31T10:10:04.907Z,25.5
2018-05-31T10:10:55.498Z,25.6
2018-05-31T10:11:45.607Z,25.6
2018-05-31T10:12:35.405Z,25.6
2018-05-31T10:13:25.709Z,25.6
2018-05-31T10:14:14.945Z,25.6
2018-05-31T10:15:05.131Z,25.6
2018-05-31T10:15:55.057Z,25.6
2018-05-31T10:16:45.729Z,25.6
2018-05-31T10:17:35.789Z,25.6
2018-05-31T10:18:25.477Z,25.6
2018-05-31T10:19:15.560Z,25.6
2018-05-31T10:20:05.952Z,25.6
2018-05-31T10:20:55.721Z,25.7
2018-05-31T10:21:46.048Z,25.7
2018-05-31T10:22:35.989Z,25.7
2018-05-31T10:23:26.545Z,25.7
2018-05-31T10:24:15.953Z,25.7
2018-05-31T10:25:06.038Z,25.7
2018-05-31T10:25:56.150Z,25.7
2018-05-31T10:26:46.711Z,25.7
2018-05-31T10:27:36.253Z,25.7
2018-05-31T10:28:26.576Z,25.7
2018-05-31T10:29:15.822Z,25.8
2018-05-31T10:30:06.893Z,25.7
2018-05-31T10:30:57.061Z,25.7
2018-05-31T10:31:46.315Z,25.7
2018-05-31T10:32:36.676Z,25.7
2018-05-31T10:33:26.971Z,25.7
2018-05-31T10:34:16.725Z,25.7
2018-05-31T10:35:07.111Z,25.8
2018-05-31T10:35:57.221Z,25.8
2018-05-31T10:36:46.964Z,25.8
2018-05-31T10:37:36.763Z,25.8
2018-05-31T10:38:26.403Z,25.8
2018-05-31T10:39:17.406Z,25.8
2018-05-31T10:40:07.275Z,25.8
2018-05-31T10:40:57.834Z,25.8
2018-05-31T10:41:47.667Z,25.8
2018-05-31T10:42:36.884Z,25.8
2018-05-31T10:43:27.793Z,25.8
2018-05-31T10:44:17.556Z,25.8
2018-05-31T10:45:08.228Z,25.8
2018-05-31T10:45:57.664Z,25.8
2018-05-31T10:46:48.054Z,25.8
2018-05-31T10:47:38.413Z,25.8
2018-05-31T10:48:27.868Z,25.8
2018-05-31T10:49:17.575Z,25.8
2018-05-31T10:50:08.591Z,25.8
2018-05-31T10:50:58.309Z,25.7
2018-05-31T10:51:48.633Z,25.7
2018-05-31T10:52:38.181Z,25.7
2018-05-31T10:53:27.942Z,25.7
2018-05-31T10:54:18.328Z,25.7
2018-05-31T10:55:08.661Z,25.8
2018-05-31T10:55:58.755Z,25.8
2018-05-31T10:56:48.513Z,25.7
2018-05-31T10:57:39.082Z,25.8
2018-05-31T10:58:28.330Z,25.8
2018-05-31T10:59:19.232Z,25.7
2018-05-31T11:00:08.468Z,25.8
2018-05-31T11:00:58.510Z,25.8
2018-05-31T11:01:48.822Z,25.7
2018-05-31T11:02:39.180Z,25.8
2018-05-31T11:03:28.708Z,25.7
2018-05-31T11:04:19.577Z,25.7
2018-05-31T11:05:08.840Z,25.6
2018-05-31T11:05:59.245Z,25.7
2018-05-31T11:06:49.241Z,25.7
2018-05-31T11:07:39.633Z,25.7
2018-05-31T11:08:29.655Z,25.7